createdAt,value
2023-05-14T00:04:08.488Z,7.82
2023-05-14T00:09:11.511Z,8.35
2023-05-14T00:14:14.474Z,5.97
2023-05-14T00:19:18.017Z,5.70
2023-05-14T00:24:22.363Z,9.68
2023-05-14T00:29:25.396Z,4.57
2023-05-14T00:34:28.390Z,5.50
2023-05-14T00:39:31.453Z,8.40
2023-05-14T00:44:34.546Z,3.45
2023-05-14T00:49:40.260Z,4.85
2023-05-14T00:54:43.515Z,6.40
2023-05-14T00:59:46.667Z,5.30
2023-05-14T01:04:50.167Z,6.25
2023-05-14T01:10:04.387Z,8.00
2023-05-14T01:15:30.441Z,4.78
2023-05-14T01:20:33.906Z,5.00
2023-05-14T01:25:37.748Z,7.53
2023-05-14T01:30:46.506Z,6.97
2023-05-14T01:35:51.153Z,8.65
2023-05-14T01:40:55.772Z,14.60
2023-05-14T01:45:59.165Z,14.02
2023-05-14T01:51:02.928Z,7.10
2023-05-14T01:56:06.140Z,13.38
2023-05-14T02:01:09.391Z,12.70
2023-05-14T02:06:12.315Z,6.72
2023-05-14T02:11:15.419Z,5.88
2023-05-14T02:16:19.564Z,4.20
2023-05-14T02:21:22.622Z,7.13
2023-05-14T02:26:26.022Z,6.05
2023-05-14T02:31:29.096Z,7.68
2023-05-14T02:36:32.818Z,6.82
2023-05-14T02:41:35.835Z,55.17
2023-05-14T02:46:38.952Z,21.20
2023-05-14T02:51:42.263Z,23.63
2023-05-14T02:56:45.293Z,11.45
2023-05-14T03:01:48.295Z,5.03
2023-05-14T03:06:51.843Z,9.82
2023-05-14T03:11:55.434Z,3.58
2023-05-14T03:16:58.917Z,8.60
2023-05-14T03:22:02.333Z,15.15
2023-05-14T03:27:05.643Z,11.45
2023-05-14T03:32:08.726Z,5.57
2023-05-14T03:37:11.869Z,7.38
2023-05-14T03:42:14.797Z,7.32
2023-05-14T03:47:17.763Z,6.05
2023-05-14T03:52:21.012Z,4.85
2023-05-14T03:57:24.097Z,5.53
2023-05-14T04:02:27.163Z,3.85
2023-05-14T04:07:31.807Z,6.72
2023-05-14T04:12:34.881Z,4.70
2023-05-14T04:17:38.894Z,6.60
2023-05-14T04:22:41.911Z,7.60
2023-05-14T04:27:44.914Z,7.00
2023-05-14T04:32:47.989Z,6.95
2023-05-14T04:37:51.002Z,4.30
2023-05-14T04:42:53.998Z,8.32
2023-05-14T04:47:57.041Z,9.70
2023-05-14T04:53:00.006Z,6.53
2023-05-14T04:58:03.294Z,3.72
2023-05-14T05:03:06.455Z,4.75
2023-05-14T05:08:09.606Z,4.38
2023-05-14T05:13:12.570Z,6.00
2023-05-14T05:18:15.744Z,5.55
2023-05-14T05:23:18.765Z,5.65
2023-05-14T05:28:21.760Z,3.53
2023-05-14T05:33:24.751Z,2.28
2023-05-14T05:38:27.733Z,4.32
2023-05-14T05:43:30.732Z,4.70
2023-05-14T05:48:33.790Z,2.75
2023-05-14T05:53:36.809Z,2.10
2023-05-14T05:58:39.751Z,1.58
2023-05-14T06:03:42.822Z,4.30
2023-05-14T06:08:45.912Z,1.33
2023-05-14T06:13:48.894Z,4.25
2023-05-14T06:18:53.082Z,2.85
2023-05-14T06:23:56.073Z,1.75
2023-05-14T06:28:59.572Z,2.67
2023-05-14T06:34:02.643Z,4.95
2023-05-14T06:39:05.752Z,2.50
2023-05-14T06:44:08.750Z,4.35
2023-05-14T06:49:12.014Z,2.53
2023-05-14T06:54:15.330Z,5.82
2023-05-14T06:59:18.346Z,2.05
2023-05-14T07:04:21.376Z,1.52
2023-05-14T07:09:24.482Z,2.22
2023-05-14T07:14:27.428Z,1.30
2023-05-14T07:19:30.525Z,1.33
2023-05-14T07:24:33.563Z,1.60
2023-05-14T07:29:36.661Z,3.03
2023-05-14T07:34:39.687Z,3.38
2023-05-14T07:39:42.652Z,2.47
2023-05-14T07:44:46.295Z,4.47
2023-05-14T07:49:49.295Z,2.22
2023-05-14T07:54:52.456Z,2.63
2023-05-14T07:59:55.528Z,1.40
2023-05-14T08:04:58.688Z,2.03
2023-05-14T08:10:01.996Z,2.05
2023-05-14T08:15:08.689Z,1.55
2023-05-14T08:20:12.366Z,4.10
2023-05-14T08:25:15.509Z,2.25
2023-05-14T08:30:18.565Z,4.85
2023-05-14T08:35:21.642Z,2.03
2023-05-14T08:40:24.847Z,4.32
2023-05-14T08:45:34.517Z,1.88
2023-05-14T08:50:37.758Z,1.50
2023-05-14T08:55:41.000Z,1.38
2023-05-14T09:00:43.983Z,2.38
2023-05-14T09:05:48.770Z,3.67
2023-05-14T09:10:51.860Z,1.38
2023-05-14T09:15:55.816Z,1.60
2023-05-14T09:20:58.860Z,2.58
2023-05-14T09:26:06.250Z,1.45
2023-05-14T09:31:10.016Z,2.42
2023-05-14T09:36:13.299Z,1.50
2023-05-14T09:41:16.662Z,2.03
2023-05-14T09:46:19.649Z,1.38
2023-05-14T09:51:22.768Z,3.50
2023-05-14T09:56:25.825Z,4.38
2023-05-14T10:01:35.382Z,1.58
2023-05-14T10:06:39.635Z,1.20
2023-05-14T10:11:53.087Z,2.55
2023-05-14T10:16:59.791Z,4.30
2023-05-14T10:22:08.481Z,1.80
2023-05-14T10:27:11.862Z,1.60
2023-05-14T10:32:15.188Z,5.13
2023-05-14T10:37:21.226Z,2.45
2023-05-14T10:42:27.777Z,1.25
2023-05-14T10:47:32.287Z,1.92
2023-05-14T10:52:35.770Z,2.30
2023-05-14T10:57:40.891Z,1.48
2023-05-14T11:02:45.219Z,2.08
2023-05-14T11:07:49.853Z,1.67
2023-05-14T11:12:53.159Z,1.75
2023-05-14T11:17:56.197Z,3.40
2023-05-14T11:22:59.216Z,2.35
2023-05-14T11:28:02.360Z,3.85
2023-05-14T11:33:05.493Z,3.47
2023-05-14T11:38:09.344Z,3.65
2023-05-14T11:43:12.585Z,2.08
2023-05-14T11:48:15.631Z,1.35
2023-05-14T11:53:20.405Z,1.17
2023-05-14T11:58:23.514Z,0.95
2023-05-14T12:03:30.170Z,2.75
2023-05-14T12:08:33.428Z,1.30
2023-05-14T12:13:37.210Z,4.00
2023-05-14T12:18:40.435Z,1.75
2023-05-14T12:23:43.391Z,1.60
2023-05-14T12:28:48.322Z,1.92
2023-05-14T12:33:51.603Z,0.88
2023-05-14T12:39:04.389Z,2.05
2023-05-14T12:44:07.454Z,2.42
2023-05-14T12:49:11.182Z,4.70
2023-05-14T12:54:16.129Z,1.02
2023-05-14T12:59:19.160Z,1.90
2023-05-14T13:04:22.185Z,3.90
2023-05-14T13:09:25.147Z,6.28
2023-05-14T13:14:28.186Z,2.15
2023-05-14T13:19:31.280Z,1.75
2023-05-14T13:24:35.071Z,1.50
2023-05-14T13:29:38.134Z,2.47
2023-05-14T13:34:41.144Z,3.50
2023-05-14T13:39:44.120Z,3.67
2023-05-14T13:44:47.128Z,2.35
2023-05-14T13:49:50.166Z,5.78
2023-05-14T13:54:56.752Z,4.47
2023-05-14T13:59:59.781Z,7.00
2023-05-14T14:05:02.860Z,3.55
2023-05-14T14:10:08.381Z,1.63
2023-05-14T14:15:11.996Z,1.70
2023-05-14T14:20:15.047Z,2.65
2023-05-14T14:25:18.155Z,3.22
2023-05-14T14:30:21.213Z,3.83
2023-05-14T14:35:24.478Z,5.63
2023-05-14T14:40:27.783Z,3.88
2023-05-14T14:45:30.970Z,2.47
2023-05-14T14:50:34.042Z,3.53
2023-05-14T14:55:37.072Z,5.30
2023-05-14T15:00:40.620Z,4.78
2023-05-14T15:05:43.708Z,3.72
2023-05-14T15:10:47.078Z,5.60
2023-05-14T15:15:52.025Z,8.77
2023-05-14T15:20:57.027Z,4.70
2023-05-14T15:26:00.085Z,9.75
2023-05-14T15:31:03.587Z,6.95
2023-05-14T15:36:06.955Z,8.68
2023-05-14T15:41:10.176Z,8.07
2023-05-14T15:46:13.662Z,9.80
2023-05-14T15:51:16.862Z,12.88
2023-05-14T15:56:20.285Z,14.73
2023-05-14T16:01:23.397Z,14.50
2023-05-14T16:06:26.556Z,16.40
2023-05-14T16:11:30.668Z,19.10
2023-05-14T16:16:33.772Z,17.65
2023-05-14T16:21:36.844Z,15.75
2023-05-14T16:26:40.485Z,13.50
2023-05-14T16:31:43.696Z,23.05
2023-05-14T16:36:46.764Z,23.30
2023-05-14T16:41:49.679Z,28.05
2023-05-14T16:46:52.634Z,32.55
2023-05-14T16:51:55.633Z,24.20
2023-05-14T16:56:58.662Z,21.02
2023-05-14T17:02:01.737Z,19.90
2023-05-14T17:07:05.872Z,36.90
2023-05-14T17:12:09.964Z,25.90
2023-05-14T17:17:12.971Z,23.67
2023-05-14T17:22:16.134Z,29.90
2023-05-14T17:27:19.129Z,30.52
2023-05-14T17:32:22.320Z,24.25
2023-05-14T17:37:26.729Z,27.08
2023-05-14T17:42:29.734Z,28.55
2023-05-14T17:47:32.826Z,43.00
2023-05-14T17:52:35.924Z,35.53
2023-05-14T17:57:38.937Z,29.10
2023-05-14T18:02:42.009Z,18.58
2023-05-14T18:07:45.069Z,28.17
2023-05-14T18:12:48.046Z,28.60
2023-05-14T18:17:51.794Z,25.33
2023-05-14T18:22:54.774Z,29.45
2023-05-14T18:27:57.730Z,22.67
2023-05-14T18:33:00.957Z,29.23
2023-05-14T18:38:04.140Z,22.83
2023-05-14T18:43:07.379Z,22.50
2023-05-14T18:48:10.780Z,24.95
2023-05-14T18:53:13.879Z,21.25
2023-05-14T18:58:17.876Z,19.10
2023-05-14T19:03:21.019Z,22.27
2023-05-14T19:08:24.170Z,28.83
2023-05-14T19:13:28.811Z,28.67
2023-05-14T19:18:32.030Z,25.70
2023-05-14T19:23:35.018Z,23.67
2023-05-14T19:28:40.954Z,18.75
2023-05-14T19:33:43.998Z,23.02
2023-05-14T19:38:47.592Z,20.02
2023-05-14T19:43:50.530Z,26.63
2023-05-14T19:48:53.514Z,20.20
2023-05-14T19:53:56.575Z,20.13
2023-05-14T19:58:59.572Z,19.77
2023-05-14T20:04:02.739Z,41.53
2023-05-14T20:09:06.196Z,29.33
2023-05-14T20:14:09.123Z,23.35
2023-05-14T20:19:12.305Z,29.10
2023-05-14T20:24:15.286Z,21.13
2023-05-14T20:29:18.283Z,28.45
2023-05-14T20:34:21.396Z,29.58
2023-05-14T20:39:24.477Z,28.20
2023-05-14T20:44:27.517Z,24.65
2023-05-14T20:49:30.669Z,18.88
2023-05-14T20:54:36.917Z,22.10
2023-05-14T20:59:39.908Z,30.50
2023-05-14T21:04:43.146Z,29.70
2023-05-14T21:09:51.074Z,27.30
2023-05-14T21:14:54.202Z,21.23
2023-05-14T21:19:57.299Z,25.73
2023-05-14T21:25:00.379Z,22.98
2023-05-14T21:30:03.635Z,26.23
2023-05-14T21:35:09.112Z,22.10
2023-05-14T21:40:12.754Z,16.23
2023-05-14T21:45:15.852Z,21.02
2023-05-14T21:50:19.035Z,24.55
2023-05-14T21:55:22.161Z,23.15
2023-05-14T22:00:25.643Z,27.98
2023-05-14T22:05:29.440Z,22.08
2023-05-14T22:10:32.634Z,18.95
2023-05-14T22:15:35.793Z,22.80
2023-05-14T22:20:39.423Z,19.58
2023-05-14T22:25:42.721Z,16.40
2023-05-14T22:30:45.766Z,14.73
2023-05-14T22:35:48.792Z,15.40
2023-05-14T22:40:52.197Z,11.73
2023-05-14T22:45:55.246Z,12.27
2023-05-14T22:50:58.279Z,8.73
2023-05-14T22:56:01.315Z,12.15
2023-05-14T23:01:04.384Z,5.80
2023-05-14T23:06:07.618Z,5.30
2023-05-14T23:11:10.640Z,10.57
2023-05-14T23:16:13.850Z,6.82
2023-05-14T23:21:16.894Z,8.63
2023-05-14T23:26:19.845Z,9.68
2023-05-14T23:31:22.809Z,10.57
2023-05-14T23:36:25.838Z,10.23
2023-05-14T23:41:28.857Z,6.50
2023-05-14T23:46:32.121Z,7.50
2023-05-14T23:51:35.138Z,6.25
2023-05-14T23:56:38.237Z,6.13
